Time;durP1;ratioP1;P1;durP2;ratioP2;P2;SDS_P1;SDS_P2;PMS_P1;PMS_P2;Temp;Humidity;BMP_temperature;BMP_pressure;BME280_temperature;BME280_humidity;BME280_pressure;Samples;Min_cycle;Max_cycle;Signal;HPM_P1;HPM_P2
2022/06/18 00:00:21;;;;;;;8.23;3.00;;;19.50;98.30;;;;;;5014348;28;20048;-80
2022/06/18 00:02:47;;;;;;;8.00;3.53;;;19.60;98.80;;;;;;4990633;28;20124;-81
2022/06/18 00:05:16;;;;;;;7.03;3.08;;;19.60;99.20;;;;;;4979011;28;20530;-81
2022/06/18 00:07:45;;;;;;;6.85;3.40;;;19.50;99.30;;;;;;5008364;28;20046;-81
2022/06/18 00:10:15;;;;;;;7.25;3.60;;;19.40;99.30;;;;;;5007616;28;20079;-81
2022/06/18 00:15:29;;;;;;;7.50;3.42;;;19.40;99.90;;;;;;5013218;28;20523;-81
2022/06/18 00:17:55;;;;;;;7.78;4.05;;;19.40;99.90;;;;;;5014259;28;20041;-81
2022/06/18 00:20:25;;;;;;;6.93;3.65;;;19.30;99.90;;;;;;5017552;28;20099;-80
2022/06/18 00:22:55;;;;;;;6.72;3.78;;;19.30;99.90;;;;;;5014043;28;20033;-80
2022/06/18 00:25:26;;;;;;;8.05;4.10;;;19.20;99.90;;;;;;5007461;28;20128;-80
2022/06/18 00:27:52;;;;;;;;;;;19.10;99.90;;;;;;4992433;28;20057;-81
2022/06/18 00:30:21;;;;;;;8.93;3.60;;;19.00;99.90;;;;;;5013839;28;20356;-80
2022/06/18 00:32:47;;;;;;;7.65;3.75;;;19.00;99.90;;;;;;5000737;28;20037;-80
2022/06/18 00:35:14;;;;;;;7.60;3.90;;;19.00;99.90;;;;;;4997863;28;20058;-81
2022/06/18 00:37:42;;;;;;;9.32;4.20;;;18.90;99.90;;;;;;4997805;28;20484;-81
2022/06/18 00:40:45;;;;;;;7.50;4.00;;;18.90;99.90;;;;;;4998344;28;20440;-80
2022/06/18 00:43:28;;;;;;;7.13;3.67;;;18.80;99.90;;;;;;4981606;28;20065;-80
2022/06/18 00:46:00;;;;;;;7.45;4.55;;;18.80;99.90;;;;;;4985057;28;20041;-80
2022/06/18 00:48:44;;;;;;;6.68;3.80;;;18.80;99.90;;;;;;4995128;28;20103;-80
2022/06/18 00:51:17;;;;;;;7.68;4.10;;;18.80;99.90;;;;;;5007954;28;20053;-80
2022/06/18 00:53:53;;;;;;;8.40;4.60;;;18.80;99.90;;;;;;5014081;28;20124;-80
2022/06/18 00:56:35;;;;;;;9.40;4.40;;;18.80;99.90;;;;;;5003352;28;20515;-80
2022/06/18 00:59:04;;;;;;;9.13;4.22;;;18.70;99.90;;;;;;4993484;28;20069;-80
2022/06/18 01:01:38;;;;;;;8.02;4.20;;;18.70;99.90;;;;;;5012774;28;20091;-80
2022/06/18 01:04:27;;;;;;;7.70;4.82;;;18.70;99.90;;;;;;5018333;28;20424;-80
2022/06/18 01:07:14;;;;;;;8.75;4.32;;;18.80;99.90;;;;;;5013280;28;20045;-80
2022/06/18 01:09:41;;;;;;;7.65;4.78;;;18.80;99.90;;;;;;4993988;28;20033;-80
2022/06/18 01:12:08;;;;;;;8.35;4.85;;;18.70;99.90;;;;;;4998011;28;20384;-79
2022/06/18 01:14:35;;;;;;;8.07;4.60;;;18.70;99.90;;;;;;5001878;28;20095;-79
2022/06/18 01:17:03;;;;;;;9.70;5.50;;;18.70;99.90;;;;;;4995016;28;20038;-80
2022/06/18 01:19:34;;;;;;;8.43;4.25;;;18.60;99.90;;;;;;5007087;28;20044;-80
2022/06/18 01:22:15;;;;;;;10.20;4.40;;;18.60;99.90;;;;;;5014397;28;20071;-80
2022/06/18 01:24:44;;;;;;;7.25;4.75;;;18.60;99.90;;;;;;5004972;28;20120;-79
2022/06/18 01:27:10;;;;;;;8.93;4.95;;;18.60;99.90;;;;;;5011250;28;20067;-80
2022/06/18 01:29:37;;;;;;;9.07;5.10;;;18.50;99.90;;;;;;4995613;28;20045;-80
2022/06/18 01:32:05;;;;;;;9.05;5.50;;;18.50;99.90;;;;;;4994928;28;20121;-80
2022/06/18 01:34:31;;;;;;;9.25;5.50;;;18.50;99.90;;;;;;5016554;28;20033;-79
2022/06/18 01:37:00;;;;;;;10.73;5.72;;;18.50;99.90;;;;;;4997969;28;20038;-80
2022/06/18 01:39:31;;;;;;;8.57;5.32;;;18.40;99.90;;;;;;5008251;28;20046;-80
2022/06/18 01:42:03;;;;;;;8.03;4.60;;;18.40;99.90;;;;;;4997390;28;20508;-79
2022/06/18 01:44:47;;;;;;;8.52;5.30;;;18.40;99.90;;;;;;5013569;28;20037;-78
2022/06/18 01:47:15;;;;;;;7.68;5.13;;;18.50;99.90;;;;;;5012181;28;20100;-79
2022/06/18 01:49:57;;;;;;;9.57;5.55;;;18.50;99.90;;;;;;5014113;28;20044;-79
2022/06/18 01:52:29;;;;;;;8.57;5.40;;;18.60;99.90;;;;;;5016461;28;20043;-80
2022/06/18 01:54:59;;;;;;;10.02;6.03;;;18.60;99.90;;;;;;5000383;28;20398;-80
2022/06/18 01:57:33;;;;;;;9.82;6.00;;;18.60;99.90;;;;;;5010960;28;20034;-80
2022/06/18 02:00:12;;;;;;;8.75;5.80;;;18.60;99.90;;;;;;5016881;28;20438;-78
2022/06/18 02:02:39;;;;;;;9.98;5.55;;;18.50;99.90;;;;;;5008760;28;20048;-79
2022/06/18 02:05:07;;;;;;;9.95;5.43;;;18.50;99.90;;;;;;5016366;28;20559;-79
2022/06/18 02:07:33;;;;;;;9.63;5.07;;;18.50;99.90;;;;;;5005838;28;20106;-79
2022/06/18 02:10:08;;;;;;;9.43;5.90;;;18.50;99.90;;;;;;4991982;28;20047;-79
2022/06/18 02:12:37;;;;;;;11.27;5.97;;;18.40;99.90;;;;;;4991720;28;20052;-79
2022/06/18 02:15:08;;;;;;;9.68;6.05;;;18.40;99.90;;;;;;5013548;28;20136;-79
2022/06/18 02:17:34;;;;;;;10.43;5.60;;;18.40;99.90;;;;;;5000397;28;20077;-78
2022/06/18 02:20:15;;;;;;;9.60;6.38;;;18.40;99.90;;;;;;5000053;28;20041;-79
2022/06/18 02:22:45;;;;;;;11.57;6.15;;;18.40;99.90;;;;;;4997401;28;20041;-80
2022/06/18 02:25:14;;;;;;;10.30;6.38;;;18.40;99.90;;;;;;5005721;28;20534;-79
2022/06/18 02:27:41;;;;;;;10.18;6.63;;;18.40;99.90;;;;;;4998133;28;20061;-79
2022/06/18 02:30:29;;;;;;;9.70;6.30;;;18.40;99.90;;;;;;4979849;28;20489;-78
2022/06/18 02:33:01;;;;;;;9.55;6.63;;;18.40;99.90;;;;;;5011506;28;20044;-78
2022/06/18 02:35:29;;;;;;;9.77;6.90;;;18.40;99.90;;;;;;5003474;28;20045;-78
2022/06/18 02:37:56;;;;;;;10.35;6.20;;;18.50;99.90;;;;;;5020679;28;20526;-78
2022/06/18 02:40:25;;;;;;;9.07;6.80;;;18.40;99.90;;;;;;4999787;28;20060;-79
2022/06/18 02:42:54;;;;;;;9.05;6.50;;;18.40;99.90;;;;;;5012195;28;20122;-79
2022/06/18 02:45:21;;;;;;;11.07;7.60;;;18.40;99.90;;;;;;5015419;28;20094;-78
2022/06/18 02:47:48;;;;;;;10.80;6.10;;;18.50;99.90;;;;;;5008308;28;20516;-80
2022/06/18 02:50:17;;;;;;;8.90;6.20;;;18.40;99.90;;;;;;5012663;28;20052;-78
2022/06/18 02:52:48;;;;;;;8.88;6.18;;;18.50;99.90;;;;;;5017474;28;20460;-78
2022/06/18 02:55:38;;;;;;;10.95;6.85;;;18.40;99.90;;;;;;5012465;28;20038;-79
2022/06/18 02:58:18;;;;;;;10.70;6.10;;;18.40;99.90;;;;;;5014295;28;20054;-79
2022/06/18 03:00:47;;;;;;;9.30;6.60;;;18.40;99.90;;;;;;5016247;28;20050;-79
2022/06/18 03:03:15;;;;;;;10.30;8.02;;;18.40;99.90;;;;;;5016495;28;20120;-79
2022/06/18 03:05:42;;;;;;;10.32;7.68;;;18.40;99.90;;;;;;5004900;28;20056;-78
2022/06/18 03:08:08;;;;;;;9.85;7.10;;;18.40;99.90;;;;;;5017847;28;20492;-78
2022/06/18 03:13:20;;;;;;;10.30;7.35;;;18.40;99.90;;;;;;5028092;28;20048;-79
2022/06/18 03:15:46;;;;;;;10.65;7.00;;;18.40;99.90;;;;;;5014789;28;20041;-78
2022/06/18 03:18:13;;;;;;;11.60;7.95;;;18.40;99.90;;;;;;5018959;28;20041;-78
2022/06/18 03:20:52;;;;;;;11.10;7.22;;;18.50;99.90;;;;;;5001421;28;20068;-79
2022/06/18 03:23:19;;;;;;;10.38;7.97;;;18.50;99.90;;;;;;5003247;28;20124;-80
2022/06/18 03:25:46;;;;;;;10.75;7.70;;;18.50;99.90;;;;;;5002549;28;20037;-79
2022/06/18 03:28:13;;;;;;;11.15;7.72;;;18.50;99.90;;;;;;5018343;28;20041;-80
2022/06/18 03:30:41;;;;;;;11.25;8.07;;;18.50;99.90;;;;;;4998246;28;20370;-81
2022/06/18 03:33:08;;;;;;;9.43;7.80;;;18.50;99.90;;;;;;5016495;28;20033;-81
2022/06/18 03:35:35;;;;;;;12.02;7.72;;;18.50;99.90;;;;;;4996477;28;20044;-81
2022/06/18 03:38:01;;;;;;;10.75;7.53;;;18.50;99.90;;;;;;5012252;28;20492;-81
2022/06/18 03:40:28;;;;;;;11.60;7.55;;;18.50;99.90;;;;;;5015781;28;20037;-80
2022/06/18 03:42:54;;;;;;;10.63;7.45;;;18.50;99.90;;;;;;5001315;28;20048;-81
2022/06/18 03:45:20;;;;;;;12.13;8.48;;;18.60;99.90;;;;;;4998929;28;20124;-81
2022/06/18 03:47:48;;;;;;;13.27;7.82;;;18.60;99.90;;;;;;5014906;28;20041;-81
2022/06/18 03:50:16;;;;;;;12.48;8.13;;;18.60;99.90;;;;;;5014855;28;20034;-81
2022/06/18 03:52:42;;;;;;;11.85;8.95;;;18.60;99.90;;;;;;5014398;28;20500;-81
2022/06/18 03:55:11;;;;;;;12.30;8.35;;;18.60;99.90;;;;;;5015451;28;20025;-81
2022/06/18 03:57:37;;;;;;;14.43;8.18;;;18.60;99.90;;;;;;4998403;28;20057;-81
2022/06/18 04:00:05;;;;;;;10.90;7.95;;;18.60;99.90;;;;;;5012041;28;20045;-81
2022/06/18 04:02:31;;;;;;;12.05;8.60;;;18.60;99.90;;;;;;5015075;28;20055;-82
2022/06/18 04:04:56;;;;;;;10.45;8.70;;;18.60;99.90;;;;;;5000787;28;20120;-82
2022/06/18 04:07:23;;;;;;;10.40;8.02;;;18.60;99.90;;;;;;4997866;28;20399;-81
2022/06/18 04:09:50;;;;;;;11.45;7.88;;;18.60;99.90;;;;;;4998271;28;20041;-81
2022/06/18 04:12:19;;;;;;;10.10;8.23;;;18.70;99.90;;;;;;5008402;28;20115;-81
2022/06/18 04:14:45;;;;;;;13.30;8.25;;;18.70;99.90;;;;;;4992746;28;20132;-81
2022/06/18 04:17:15;;;;;;;12.40;8.75;;;18.70;99.90;;;;;;4986219;28;20129;-81
2022/06/18 04:19:42;;;;;;;13.27;8.40;;;18.80;99.90;;;;;;5010849;28;20029;-81
2022/06/18 04:22:09;;;;;;;11.45;8.55;;;18.80;99.90;;;;;;4996049;28;20065;-81
2022/06/18 04:24:35;;;;;;;12.50;9.27;;;18.90;99.90;;;;;;4985833;28;20046;-81
2022/06/18 04:27:01;;;;;;;15.52;9.70;;;18.90;99.90;;;;;;5001813;28;20049;-81
2022/06/18 04:29:28;;;;;;;12.27;9.45;;;18.90;99.90;;;;;;4997916;28;20503;-81
2022/06/18 04:31:54;;;;;;;13.82;9.02;;;19.00;99.90;;;;;;5009564;28;20045;-81
2022/06/18 04:34:20;;;;;;;14.05;9.50;;;19.00;99.90;;;;;;4975533;28;20037;-81
2022/06/18 04:36:46;;;;;;;14.02;9.30;;;19.10;99.90;;;;;;4986110;28;20038;-80
2022/06/18 04:39:12;;;;;;;13.95;10.57;;;19.10;99.90;;;;;;4982564;28;20065;-81
2022/06/18 04:41:38;;;;;;;13.63;9.93;;;19.20;99.90;;;;;;5005838;28;20037;-80
2022/06/18 04:44:04;;;;;;;12.13;9.07;;;19.20;99.90;;;;;;5001204;28;20396;-81
2022/06/18 04:46:31;;;;;;;13.98;9.50;;;19.20;99.90;;;;;;5010724;28;20502;-81
2022/06/18 04:48:57;;;;;;;13.52;9.80;;;19.30;99.90;;;;;;5012100;28;20743;-81
2022/06/18 04:51:22;;;;;;;12.40;9.95;;;19.40;99.90;;;;;;5013027;28;20270;-81
2022/06/18 04:53:48;;;;;;;13.80;9.27;;;19.50;99.90;;;;;;5014652;28;20045;-80
2022/06/18 04:56:14;;;;;;;15.18;10.85;;;19.60;99.90;;;;;;5011743;28;20175;-80
2022/06/18 04:58:40;;;;;;;14.73;10.75;;;19.80;99.90;;;;;;5001447;28;20522;-80
2022/06/18 05:01:06;;;;;;;16.42;10.68;;;19.80;99.90;;;;;;4998124;28;20037;-80
2022/06/18 05:03:32;;;;;;;13.43;10.23;;;20.00;99.90;;;;;;5027919;28;20033;-80
2022/06/18 05:05:58;;;;;;;17.05;10.20;;;20.30;99.90;;;;;;5010056;28;20049;-80
2022/06/18 05:08:25;;;;;;;18.33;11.20;;;20.40;99.90;;;;;;4998092;28;20587;-80
2022/06/18 05:10:51;;;;;;;16.98;10.65;;;20.60;99.90;;;;;;4997902;28;20038;-80
2022/06/18 05:13:18;;;;;;;18.38;11.02;;;20.80;99.90;;;;;;4998056;28;20033;-80
2022/06/18 05:15:45;;;;;;;15.65;10.70;;;21.00;99.90;;;;;;5011400;28;20687;-80
2022/06/18 05:18:16;;;;;;;15.95;10.30;;;21.30;99.90;;;;;;5001419;28;20052;-79
2022/06/18 05:20:43;;;;;;;17.70;11.10;;;21.80;99.90;;;;;;5006636;28;20411;-79
2022/06/18 05:23:13;;;;;;;15.38;9.93;;;21.80;99.90;;;;;;4990096;28;20527;-80
2022/06/18 05:25:39;;;;;;;15.45;10.13;;;22.00;99.90;;;;;;5009866;28;20037;-80
2022/06/18 05:28:05;;;;;;;16.15;10.32;;;22.40;99.90;;;;;;4979624;28;20125;-79
2022/06/18 05:30:31;;;;;;;17.10;9.63;;;22.40;99.90;;;;;;4984560;28;20546;-79
2022/06/18 05:32:57;;;;;;;16.73;10.30;;;22.50;99.90;;;;;;4988528;28;20504;-79
2022/06/18 05:35:22;;;;;;;15.95;10.13;;;22.50;99.90;;;;;;4994576;28;20041;-79
2022/06/18 05:37:50;;;;;;;16.13;10.23;;;22.90;99.90;;;;;;4989036;28;20404;-79
2022/06/18 05:40:17;;;;;;;16.75;10.35;;;23.00;99.90;;;;;;5007062;28;20053;-79
2022/06/18 05:42:42;;;;;;;14.32;9.75;;;23.20;99.90;;;;;;4995044;28;20550;-80
2022/06/18 05:45:09;;;;;;;16.13;10.38;;;23.30;99.90;;;;;;5006151;28;20120;-79
2022/06/18 05:47:34;;;;;;;16.55;10.88;;;23.40;99.90;;;;;;4994902;28;20034;-80
2022/06/18 05:50:06;;;;;;;19.00;10.20;;;23.50;99.90;;;;;;5006079;28;20037;-79
2022/06/18 05:52:32;;;;;;;17.90;9.52;;;23.90;99.90;;;;;;4975879;28;20042;-79
2022/06/18 05:54:58;;;;;;;17.58;10.60;;;24.30;99.90;;;;;;4994702;28;20056;-80
2022/06/18 05:57:24;;;;;;;18.23;10.80;;;24.70;99.90;;;;;;5007432;28;20041;-79
2022/06/18 05:59:51;;;;;;;19.05;10.18;;;24.30;99.90;;;;;;5014496;28;20442;-79
2022/06/18 06:02:20;;;;;;;16.70;10.38;;;24.50;99.90;;;;;;5003395;28;20045;-80
2022/06/18 06:04:46;;;;;;;15.80;10.40;;;24.50;99.90;;;;;;4990000;28;20049;-80
2022/06/18 06:07:21;;;;;;;15.82;10.00;;;24.80;99.90;;;;;;5000600;28;20053;-80
2022/06/18 06:12:32;;;;;;;14.60;9.07;;;25.00;99.60;;;;;;5007729;28;20115;-79
2022/06/18 06:14:57;;;;;;;13.57;8.85;;;25.30;98.60;;;;;;4994334;28;21034;-80
2022/06/18 06:17:25;;;;;;;16.02;9.00;;;25.70;97.90;;;;;;5000203;28;20097;-80
2022/06/18 06:19:52;;;;;;;16.75;9.40;;;25.80;96.80;;;;;;5008259;28;20183;-79
2022/06/18 06:22:18;;;;;;;18.17;8.77;;;25.80;96.50;;;;;;4986949;28;20044;-80
2022/06/18 06:24:44;;;;;;;15.25;9.57;;;26.10;96.10;;;;;;5004076;28;20041;-80
2022/06/18 06:27:10;;;;;;;16.40;8.68;;;26.30;94.50;;;;;;4998863;28;20125;-80
2022/06/18 06:29:36;;;;;;;14.73;8.55;;;26.10;94.30;;;;;;4996747;28;20128;-80
2022/06/18 06:32:02;;;;;;;16.08;8.27;;;26.30;95.10;;;;;;5013307;28;20120;-80
2022/06/18 06:34:28;;;;;;;14.32;8.57;;;26.40;95.50;;;;;;5000367;28;20034;-80
2022/06/18 06:36:56;;;;;;;15.95;8.50;;;26.60;93.70;;;;;;4999841;28;20060;-80
2022/06/18 06:39:22;;;;;;;14.38;7.90;;;26.70;93.10;;;;;;5006530;28;20046;-79
2022/06/18 06:41:48;;;;;;;13.57;8.23;;;26.60;92.30;;;;;;5003521;28;20033;-80
2022/06/18 06:44:13;;;;;;;17.88;8.52;;;26.80;92.10;;;;;;4982664;28;20128;-79
2022/06/18 06:46:39;;;;;;;16.98;7.72;;;26.20;91.90;;;;;;4985847;28;20045;-80
2022/06/18 06:49:05;;;;;;;16.88;8.02;;;26.40;93.20;;;;;;4998216;28;20034;-79
2022/06/18 06:51:34;;;;;;;16.27;7.75;;;26.40;93.10;;;;;;5005495;28;20037;-79
2022/06/18 06:54:00;;;;;;;13.95;7.43;;;26.50;92.20;;;;;;5013829;28;20496;-79
2022/06/18 06:59:10;;;;;;;15.15;7.93;;;26.60;91.20;;;;;;5010975;28;20041;-79
2022/06/18 07:01:37;;;;;;;13.25;7.45;;;26.90;90.00;;;;;;5006057;28;20037;-79
2022/06/18 07:04:05;;;;;;;13.90;7.07;;;27.00;88.80;;;;;;5006688;28;20129;-79
2022/06/18 07:06:31;;;;;;;14.95;8.18;;;27.30;88.50;;;;;;4989889;28;20080;-79
2022/06/18 07:08:57;;;;;;;16.27;9.23;;;27.70;85.90;;;;;;4999111;28;20038;-80
2022/06/18 07:11:23;;;;;;;18.52;9.40;;;27.70;83.90;;;;;;5011522;28;20103;-78
2022/06/18 07:13:48;;;;;;;15.52;8.32;;;27.80;83.90;;;;;;4986375;28;20485;-78
2022/06/18 07:16:15;;;;;;;18.65;8.70;;;27.70;85.10;;;;;;5013808;28;20568;-78
2022/06/18 07:18:42;;;;;;;16.27;9.35;;;27.60;84.40;;;;;;5010475;28;20099;-78
2022/06/18 07:21:14;;;;;;;18.15;8.15;;;28.10;81.40;;;;;;4996313;28;20048;-78
2022/06/18 07:23:40;;;;;;;14.05;7.95;;;27.90;81.10;;;;;;4992009;28;20519;-78
2022/06/18 07:26:07;;;;;;;16.38;8.77;;;27.90;82.90;;;;;;5005974;28;20053;-78
2022/06/18 07:28:32;;;;;;;15.82;8.18;;;28.20;83.10;;;;;;5002049;28;20416;-79
2022/06/18 07:30:59;;;;;;;17.80;8.40;;;28.60;82.20;;;;;;5011944;28;20041;-78
2022/06/18 07:33:26;;;;;;;15.20;7.85;;;28.60;80.10;;;;;;4991247;28;20548;-78
2022/06/18 07:35:53;;;;;;;13.50;8.27;;;28.50;80.90;;;;;;5009177;28;20029;-78
2022/06/18 07:38:19;;;;;;;15.45;7.50;;;28.10;78.50;;;;;;5009300;28;20076;-78
2022/06/18 07:40:51;;;;;;;12.90;6.22;;;28.50;81.20;;;;;;4988953;28;20065;-78
2022/06/18 07:43:42;;;;;;;14.20;6.07;;;29.00;75.90;;;;;;5008142;28;20033;-79
2022/06/18 07:46:10;;;;;;;13.18;6.38;;;28.90;71.20;;;;;;4997260;28;20117;-79
2022/06/18 07:48:39;;;;;;;14.00;5.82;;;29.30;71.80;;;;;;5010419;28;20072;-78
2022/06/18 07:51:06;;;;;;;17.10;6.40;;;29.50;69.60;;;;;;4957392;28;20037;-79
2022/06/18 07:53:32;;;;;;;12.43;6.03;;;29.80;69.00;;;;;;4972749;28;20100;-79
2022/06/18 07:55:58;;;;;;;11.73;5.78;;;29.50;67.70;;;;;;5008870;28;20493;-79
2022/06/18 07:58:26;;;;;;;11.77;5.85;;;29.10;67.40;;;;;;5021621;28;20665;-79
2022/06/18 08:00:52;;;;;;;13.35;5.25;;;29.30;68.90;;;;;;4994022;28;20041;-79
2022/06/18 08:03:18;;;;;;;13.68;5.03;;;29.00;69.30;;;;;;4999965;28;20061;-79
2022/06/18 08:05:47;;;;;;;11.93;5.25;;;29.10;70.30;;;;;;4991309;28;20042;-78
2022/06/18 08:08:14;;;;;;;13.02;5.72;;;29.10;68.70;;;;;;5005028;28;20641;-79
2022/06/18 08:10:42;;;;;;;10.18;5.20;;;29.00;68.70;;;;;;4994896;28;20120;-79
2022/06/18 08:13:08;;;;;;;15.05;5.20;;;29.10;68.00;;;;;;5000470;28;20500;-79
2022/06/18 08:15:34;;;;;;;12.15;5.55;;;28.90;68.70;;;;;;5007492;28;20072;-79
2022/06/18 08:18:00;;;;;;;11.27;5.07;;;28.90;67.10;;;;;;5005416;28;21067;-79
2022/06/18 08:20:28;;;;;;;12.60;4.93;;;29.10;68.20;;;;;;5007498;28;20107;-79
2022/06/18 08:22:57;;;;;;;13.65;5.55;;;28.90;68.00;;;;;;4998530;28;20045;-79
2022/06/18 08:25:26;;;;;;;11.88;4.45;;;29.20;68.00;;;;;;4982656;28;20041;-79
2022/06/18 08:27:52;;;;;;;10.23;3.75;;;28.90;65.70;;;;;;5006987;28;20054;-80
2022/06/18 08:30:18;;;;;;;9.80;3.65;;;28.50;64.00;;;;;;4977797;28;20104;-79
2022/06/18 08:32:45;;;;;;;8.57;3.28;;;28.40;64.00;;;;;;4974825;28;20113;-79
2022/06/18 08:35:12;;;;;;;11.35;4.40;;;28.40;64.90;;;;;;4990472;28;20441;-79
2022/06/18 08:37:39;;;;;;;10.30;3.42;;;28.00;63.90;;;;;;4993450;28;20122;-80
2022/06/18 08:40:45;;;;;;;10.60;3.67;;;28.10;64.90;;;;;;4977758;28;20120;-80
2022/06/18 08:43:44;;;;;;;11.15;3.70;;;28.20;67.30;;;;;;4991149;28;20279;-80
2022/06/18 08:46:25;;;;;;;11.32;3.70;;;28.30;62.70;;;;;;5006233;28;20073;-80
2022/06/18 08:49:06;;;;;;;13.13;4.35;;;27.90;66.90;;;;;;4978042;28;20064;-80
2022/06/18 08:51:40;;;;;;;11.63;4.13;;;28.20;64.70;;;;;;5003723;28;20109;-80
2022/06/18 08:54:25;;;;;;;9.48;4.15;;;28.50;62.80;;;;;;4977068;28;20050;-80
2022/06/18 08:57:12;;;;;;;10.75;5.00;;;28.40;64.60;;;;;;4991590;28;20505;-80
2022/06/18 09:00:21;;;;;;;10.52;4.03;;;28.50;63.70;;;;;;4992476;28;20050;-80
2022/06/18 09:02:58;;;;;;;9.63;4.32;;;28.70;65.10;;;;;;5021679;28;20050;-80
2022/06/18 09:05:38;;;;;;;10.02;3.90;;;28.70;65.80;;;;;;4991217;28;20484;-80
2022/06/18 09:08:32;;;;;;;9.82;4.45;;;28.60;65.40;;;;;;4984755;28;20050;-80
2022/06/18 09:11:01;;;;;;;9.45;3.90;;;28.90;65.10;;;;;;4967467;28;20549;-80
2022/06/18 09:14:22;;;;;;;8.80;4.32;;;28.80;66.00;;;;;;4971929;28;20039;-80
2022/06/18 09:17:00;;;;;;;12.27;5.18;;;29.00;64.70;;;;;;4954430;28;20214;-80
2022/06/18 09:19:30;;;;;;;10.55;4.60;;;27.90;64.90;;;;;;4976373;28;20035;-79
2022/06/18 09:21:57;;;;;;;12.40;4.20;;;28.60;68.00;;;;;;4974302;28;20027;-80
2022/06/18 09:24:27;;;;;;;11.20;4.20;;;28.80;68.00;;;;;;4991335;28;20070;-80
2022/06/18 09:26:59;;;;;;;10.63;4.05;;;28.60;67.10;;;;;;4999344;28;20054;-80
2022/06/18 09:29:46;;;;;;;10.57;4.25;;;28.60;68.30;;;;;;5004859;28;20107;-80
2022/06/18 09:32:18;;;;;;;11.20;4.00;;;28.60;70.50;;;;;;5001743;28;20042;-80
2022/06/18 09:34:54;;;;;;;13.52;4.70;;;28.70;70.00;;;;;;4985145;28;20048;-80
2022/06/18 09:37:34;;;;;;;10.30;4.10;;;28.50;68.60;;;;;;5007208;28;20441;-80
2022/06/18 09:40:02;;;;;;;12.65;4.20;;;28.60;69.70;;;;;;5020716;28;20041;-80
2022/06/18 09:42:49;;;;;;;9.65;3.90;;;28.90;68.70;;;;;;4985238;28;20038;-80
2022/06/18 09:45:45;;;;;;;10.75;3.40;;;29.30;68.00;;;;;;5002080;28;20397;-80
2022/06/18 09:48:11;;;;;;;9.88;3.28;;;29.50;67.00;;;;;;5004463;28;20043;-80
2022/06/18 09:50:50;;;;;;;9.45;3.60;;;29.60;67.40;;;;;;4999791;28;20039;-80
2022/06/18 09:53:26;;;;;;;10.80;4.07;;;29.50;68.20;;;;;;4985089;28;20030;-80
2022/06/18 09:56:01;;;;;;;13.02;3.90;;;29.30;66.50;;;;;;4990954;28;20041;-80
2022/06/18 09:58:39;;;;;;;9.65;4.00;;;29.20;68.00;;;;;;5010767;28;20128;-80
2022/06/18 10:01:06;;;;;;;9.20;3.10;;;29.30;67.50;;;;;;4991645;28;20450;-80
2022/06/18 10:09:10;;;;;;;8.50;3.40;;;29.50;68.30;;;;;;5003351;28;20049;-80
2022/06/18 10:11:38;;;;;;;9.38;3.10;;;29.70;69.00;;;;;;4994126;28;20556;-80
2022/06/18 10:14:19;;;;;;;8.57;3.00;;;29.90;66.90;;;;;;4992587;28;20096;-80
2022/06/18 10:17:12;;;;;;;8.90;3.00;;;29.80;64.40;;;;;;5003755;28;20045;-79
2022/06/18 10:19:51;;;;;;;7.25;2.90;;;29.90;66.60;;;;;;5004781;28;20038;-80
2022/06/18 10:22:28;;;;;;;8.15;3.20;;;29.70;67.70;;;;;;5011787;28;20049;-80
2022/06/18 10:25:15;;;;;;;8.00;3.15;;;29.20;64.10;;;;;;5007482;28;20057;-80
2022/06/18 10:27:57;;;;;;;9.95;3.10;;;28.80;67.80;;;;;;4998121;28;20090;-80
2022/06/18 10:30:39;;;;;;;6.90;2.78;;;29.00;67.50;;;;;;4991420;28;20041;-81
2022/06/18 10:33:13;;;;;;;10.00;3.15;;;29.00;68.90;;;;;;4993541;28;20036;-80
2022/06/18 10:36:06;;;;;;;9.05;2.88;;;29.00;67.40;;;;;;4986720;28;20539;-80
2022/06/18 10:38:55;;;;;;;9.13;2.90;;;29.30;69.50;;;;;;4994027;28;20047;-80
2022/06/18 10:41:29;;;;;;;8.43;2.83;;;29.40;68.70;;;;;;4974109;28;20038;-80
2022/06/18 10:44:20;;;;;;;7.50;2.50;;;29.50;68.80;;;;;;4992997;28;20050;-80
2022/06/18 10:46:57;;;;;;;8.05;2.60;;;29.80;66.50;;;;;;4973790;28;20612;-80
2022/06/18 10:49:25;;;;;;;7.88;2.55;;;30.00;66.70;;;;;;4980624;28;20045;-80
2022/06/18 10:51:50;;;;;;;7.30;2.35;;;29.90;65.90;;;;;;4993705;28;20489;-80
2022/06/18 10:54:28;;;;;;;9.18;2.50;;;29.60;64.70;;;;;;4974386;28;20049;-80
2022/06/18 10:56:58;;;;;;;6.95;2.33;;;29.60;66.30;;;;;;4976191;28;20493;-80
2022/06/18 10:59:36;;;;;;;7.25;2.60;;;29.60;65.10;;;;;;4991254;28;20052;-80
2022/06/18 11:02:09;;;;;;;6.95;2.15;;;29.70;65.80;;;;;;4984252;28;20051;-80
2022/06/18 11:04:36;;;;;;;7.57;2.33;;;29.90;65.70;;;;;;4976616;28;20490;-80
2022/06/18 11:07:12;;;;;;;7.82;2.63;;;29.90;62.70;;;;;;4978256;28;20122;-80
2022/06/18 11:09:55;;;;;;;7.88;2.70;;;29.70;64.40;;;;;;4977993;28;20046;-79
2022/06/18 11:12:33;;;;;;;8.45;2.90;;;29.70;63.60;;;;;;4987586;28;20035;-81
2022/06/18 11:14:59;;;;;;;8.85;2.72;;;29.70;64.30;;;;;;4980407;28;20039;-78
2022/06/18 11:17:36;;;;;;;8.10;2.58;;;29.80;65.20;;;;;;4994040;28;20074;-80
2022/06/18 11:20:09;;;;;;;9.90;2.78;;;30.00;66.90;;;;;;4978099;28;20122;-81
2022/06/18 11:22:36;;;;;;;8.10;2.60;;;30.10;63.80;;;;;;4995950;28;20038;-80
2022/06/18 11:25:18;;;;;;;8.02;2.75;;;30.20;63.40;;;;;;4998377;28;20065;-79
2022/06/18 11:27:46;;;;;;;8.07;2.47;;;30.30;62.70;;;;;;5004336;28;20054;-81
2022/06/18 11:30:34;;;;;;;8.93;2.60;;;30.40;64.60;;;;;;4990813;28;20042;-81
2022/06/18 11:33:02;;;;;;;8.90;2.95;;;30.30;63.80;;;;;;4999776;28;20189;-81
2022/06/18 11:35:36;;;;;;;8.50;2.92;;;29.90;64.60;;;;;;4993545;28;20042;-81
2022/06/18 11:38:27;;;;;;;8.77;3.33;;;29.40;63.70;;;;;;5000474;28;20509;-80
2022/06/18 11:40:56;;;;;;;9.38;3.08;;;29.50;65.10;;;;;;5023013;28;20041;-80
2022/06/18 11:43:53;;;;;;;10.30;3.15;;;29.20;64.90;;;;;;5002493;28;20034;-79
2022/06/18 11:46:28;;;;;;;9.13;3.22;;;29.30;68.10;;;;;;5001146;28;20046;-80
2022/06/18 11:49:07;;;;;;;7.88;3.20;;;29.50;67.50;;;;;;4999641;28;20505;-80
2022/06/18 11:51:41;;;;;;;9.23;3.20;;;29.80;66.60;;;;;;5003467;28;20040;-80
2022/06/18 11:54:41;;;;;;;9.95;3.28;;;29.90;65.50;;;;;;4988763;28;20070;-81
2022/06/18 11:57:29;;;;;;;9.80;3.40;;;30.00;64.90;;;;;;5002572;28;20137;-81
2022/06/18 12:00:03;;;;;;;8.25;3.05;;;29.70;65.10;;;;;;4989146;28;20057;-80
2022/06/18 12:02:47;;;;;;;9.65;3.40;;;29.60;63.80;;;;;;5010954;28;20382;-80
2022/06/18 12:05:37;;;;;;;8.52;2.90;;;29.20;65.40;;;;;;5022252;28;20550;-80
2022/06/18 12:08:05;;;;;;;8.25;2.60;;;28.90;66.50;;;;;;4983344;28;20133;-80
2022/06/18 12:10:55;;;;;;;9.02;3.13;;;28.90;69.10;;;;;;5008521;28;20469;-80
2022/06/18 12:13:34;;;;;;;8.73;3.22;;;28.90;69.10;;;;;;5002295;28;20489;-81
2022/06/18 12:16:34;;;;;;;9.20;3.05;;;28.90;67.60;;;;;;5003899;28;20493;-80
2022/06/18 12:19:32;;;;;;;7.80;2.90;;;29.20;69.30;;;;;;4983943;28;20503;-80
2022/06/18 12:22:42;;;;;;;9.77;3.20;;;29.40;69.20;;;;;;5002997;28;20461;-81
2022/06/18 12:25:23;;;;;;;9.48;3.10;;;29.30;67.40;;;;;;4990561;28;20053;-80
2022/06/18 12:28:00;;;;;;;7.82;2.95;;;29.00;68.10;;;;;;4989916;28;20051;-80
2022/06/18 12:30:48;;;;;;;8.13;2.90;;;28.90;69.60;;;;;;4991276;28;20045;-80
2022/06/18 12:33:29;;;;;;;7.65;2.33;;;28.80;68.20;;;;;;5007046;28;20036;-80
2022/06/18 12:36:05;;;;;;;6.60;2.08;;;28.40;70.90;;;;;;5003896;28;20034;-80
2022/06/18 12:38:51;;;;;;;6.85;2.10;;;28.20;72.90;;;;;;5006925;28;20081;-80
2022/06/18 12:41:46;;;;;;;8.05;2.10;;;27.90;73.80;;;;;;5010431;28;20034;-79
2022/06/18 12:44:40;;;;;;;4.72;1.85;;;27.60;76.80;;;;;;4971871;28;20062;-80
2022/06/18 12:47:06;;;;;;;5.55;2.17;;;27.50;78.00;;;;;;4985177;28;20043;-81
2022/06/18 12:49:49;;;;;;;7.70;2.08;;;27.50;80.30;;;;;;4990857;28;20056;-81
2022/06/18 12:52:43;;;;;;;5.78;2.10;;;27.40;81.00;;;;;;4997099;28;20092;-80
2022/06/18 12:55:33;;;;;;;6.00;1.98;;;27.30;82.50;;;;;;4996529;28;20117;-80
2022/06/18 12:58:28;;;;;;;5.40;1.98;;;27.30;85.10;;;;;;5005173;28;20038;-80
2022/06/18 13:01:00;;;;;;;5.82;1.98;;;27.10;86.10;;;;;;5009783;28;20046;-80
2022/06/18 13:03:41;;;;;;;;;;;27.00;88.10;;;;;;5011597;28;20084;-80
2022/06/18 13:06:37;;;;;;;6.55;2.00;;;27.00;90.60;;;;;;4996804;28;19917;-80
2022/06/18 13:09:11;;;;;;;6.25;1.80;;;26.90;89.60;;;;;;5011228;28;20042;-80
2022/06/18 13:11:57;;;;;;;5.30;1.80;;;26.70;90.10;;;;;;5011781;28;20400;-80
2022/06/18 13:15:02;;;;;;;4.40;1.50;;;26.70;90.20;;;;;;5012951;28;20045;-79
2022/06/18 13:17:37;;;;;;;4.93;1.70;;;26.50;90.40;;;;;;4966781;28;20042;-79
2022/06/18 13:20:12;;;;;;;6.07;1.77;;;26.40;90.60;;;;;;5013754;28;20054;-79
2022/06/18 13:22:39;;;;;;;5.78;1.90;;;26.10;90.90;;;;;;5015953;28;20033;-79
2022/06/18 13:28:13;;;;;;;5.40;1.70;;;25.80;92.40;;;;;;5008905;28;20061;-78